sensor_id;sensor_type;location;lat;lon;timestamp;P1;durP1;ratioP1;P2;durP2;ratioP2
45728;SDS011;31439;53.512;10.206;2022-09-27T00:01:01;4.53;;;2.53;;
45728;SDS011;31439;53.512;10.206;2022-09-27T00:03:28;4.22;;;2.40;;
45728;SDS011;31439;53.512;10.206;2022-09-27T00:06:00;3.95;;;2.50;;
45728;SDS011;31439;53.512;10.206;2022-09-27T00:08:28;3.40;;;2.00;;
45728;SDS011;31439;53.512;10.206;2022-09-27T00:11:00;5.05;;;2.40;;
45728;SDS011;31439;53.512;10.206;2022-09-27T00:13:27;5.28;;;2.47;;
45728;SDS011;31439;53.512;10.206;2022-09-27T00:15:57;4.00;;;2.42;;
45728;SDS011;31439;53.512;10.206;2022-09-27T00:18:23;4.68;;;2.47;;
45728;SDS011;31439;53.512;10.206;2022-09-27T00:20:49;3.63;;;2.80;;
45728;SDS011;31439;53.512;10.206;2022-09-27T00:23:15;5.40;;;2.78;;
45728;SDS011;31439;53.512;10.206;2022-09-27T00:25:41;4.85;;;2.65;;
45728;SDS011;31439;53.512;10.206;2022-09-27T00:28:07;4.72;;;2.67;;
45728;SDS011;31439;53.512;10.206;2022-09-27T00:30:33;3.80;;;2.50;;
45728;SDS011;31439;53.512;10.206;2022-09-27T00:32:59;5.90;;;2.75;;
45728;SDS011;31439;53.512;10.206;2022-09-27T00:35:25;3.75;;;2.42;;
45728;SDS011;31439;53.512;10.206;2022-09-27T00:37:51;4.40;;;2.70;;
45728;SDS011;31439;53.512;10.206;2022-09-27T00:40:17;5.80;;;3.13;;
45728;SDS011;31439;53.512;10.206;2022-09-27T00:42:48;3.75;;;2.80;;
45728;SDS011;31439;53.512;10.206;2022-09-27T00:45:14;4.35;;;2.65;;
45728;SDS011;31439;53.512;10.206;2022-09-27T00:48:03;4.93;;;2.92;;
45728;SDS011;31439;53.512;10.206;2022-09-27T00:50:31;4.88;;;2.67;;
45728;SDS011;31439;53.512;10.206;2022-09-27T00:55:26;3.85;;;2.90;;
45728;SDS011;31439;53.512;10.206;2022-09-27T00:57:54;4.80;;;2.40;;
45728;SDS011;31439;53.512;10.206;2022-09-27T01:00:20;3.20;;;2.60;;
45728;SDS011;31439;53.512;10.206;2022-09-27T01:02:48;3.10;;;2.60;;
45728;SDS011;31439;53.512;10.206;2022-09-27T01:05:15;5.13;;;2.70;;
45728;SDS011;31439;53.512;10.206;2022-09-27T01:07:42;4.28;;;2.90;;
45728;SDS011;31439;53.512;10.206;2022-09-27T01:10:08;3.45;;;2.50;;
45728;SDS011;31439;53.512;10.206;2022-09-27T01:20:30;5.45;;;2.70;;
45728;SDS011;31439;53.512;10.206;2022-09-27T01:28:16;5.93;;;2.83;;
45728;SDS011;31439;53.512;10.206;2022-09-27T01:36:06;4.20;;;2.70;;
45728;SDS011;31439;53.512;10.206;2022-09-27T01:38:44;6.05;;;3.05;;
45728;SDS011;31439;53.512;10.206;2022-09-27T01:44:08;5.97;;;3.10;;
45728;SDS011;31439;53.512;10.206;2022-09-27T01:46:37;4.10;;;2.67;;
45728;SDS011;31439;53.512;10.206;2022-09-27T01:49:07;4.60;;;2.97;;
45728;SDS011;31439;53.512;10.206;2022-09-27T01:51:37;3.65;;;2.80;;
45728;SDS011;31439;53.512;10.206;2022-09-27T01:54:04;4.50;;;2.85;;
45728;SDS011;31439;53.512;10.206;2022-09-27T01:56:35;5.45;;;2.83;;
45728;SDS011;31439;53.512;10.206;2022-09-27T01:59:12;5.28;;;2.85;;
45728;SDS011;31439;53.512;10.206;2022-09-27T02:01:39;5.15;;;2.80;;
45728;SDS011;31439;53.512;10.206;2022-09-27T02:04:07;4.25;;;2.95;;
45728;SDS011;31439;53.512;10.206;2022-09-27T02:06:36;4.07;;;2.83;;
45728;SDS011;31439;53.512;10.206;2022-09-27T02:09:24;3.90;;;2.97;;
45728;SDS011;31439;53.512;10.206;2022-09-27T02:11:53;6.70;;;3.10;;
45728;SDS011;31439;53.512;10.206;2022-09-27T02:14:22;6.07;;;3.08;;
45728;SDS011;31439;53.512;10.206;2022-09-27T02:16:50;4.15;;;2.70;;
45728;SDS011;31439;53.512;10.206;2022-09-27T02:30:13;4.63;;;2.53;;
45728;SDS011;31439;53.512;10.206;2022-09-27T02:32:40;4.20;;;2.83;;
45728;SDS011;31439;53.512;10.206;2022-09-27T02:35:07;3.67;;;2.78;;
45728;SDS011;31439;53.512;10.206;2022-09-27T02:37:34;3.47;;;2.83;;
45728;SDS011;31439;53.512;10.206;2022-09-27T02:40:00;3.80;;;2.72;;
45728;SDS011;31439;53.512;10.206;2022-09-27T02:42:28;3.30;;;2.80;;
45728;SDS011;31439;53.512;10.206;2022-09-27T02:44:54;5.60;;;3.00;;
45728;SDS011;31439;53.512;10.206;2022-09-27T02:55:06;4.28;;;2.78;;
45728;SDS011;31439;53.512;10.206;2022-09-27T02:57:39;4.18;;;3.17;;
45728;SDS011;31439;53.512;10.206;2022-09-27T03:00:07;3.95;;;3.00;;
45728;SDS011;31439;53.512;10.206;2022-09-27T03:02:58;5.50;;;2.97;;
45728;SDS011;31439;53.512;10.206;2022-09-27T03:05:26;3.80;;;2.90;;
45728;SDS011;31439;53.512;10.206;2022-09-27T03:07:53;6.10;;;3.00;;
45728;SDS011;31439;53.512;10.206;2022-09-27T03:10:21;4.88;;;3.05;;
45728;SDS011;31439;53.512;10.206;2022-09-27T03:12:48;4.55;;;3.08;;
45728;SDS011;31439;53.512;10.206;2022-09-27T03:15:14;5.50;;;2.95;;
45728;SDS011;31439;53.512;10.206;2022-09-27T03:17:40;4.90;;;3.22;;
45728;SDS011;31439;53.512;10.206;2022-09-27T03:20:07;3.45;;;2.83;;
45728;SDS011;31439;53.512;10.206;2022-09-27T03:22:33;4.03;;;3.05;;
45728;SDS011;31439;53.512;10.206;2022-09-27T03:24:59;3.88;;;3.03;;
45728;SDS011;31439;53.512;10.206;2022-09-27T03:27:25;4.97;;;3.30;;
45728;SDS011;31439;53.512;10.206;2022-09-27T03:29:51;3.78;;;2.92;;
45728;SDS011;31439;53.512;10.206;2022-09-27T03:32:17;4.65;;;3.17;;
45728;SDS011;31439;53.512;10.206;2022-09-27T03:34:44;6.85;;;3.28;;
45728;SDS011;31439;53.512;10.206;2022-09-27T03:37:10;4.63;;;3.38;;
45728;SDS011;31439;53.512;10.206;2022-09-27T03:39:36;4.78;;;3.28;;
45728;SDS011;31439;53.512;10.206;2022-09-27T03:42:02;3.67;;;3.25;;
45728;SDS011;31439;53.512;10.206;2022-09-27T03:44:28;4.60;;;3.70;;
45728;SDS011;31439;53.512;10.206;2022-09-27T03:46:54;5.35;;;3.83;;
45728;SDS011;31439;53.512;10.206;2022-09-27T03:49:21;4.20;;;3.47;;
45728;SDS011;31439;53.512;10.206;2022-09-27T03:51:47;3.85;;;3.20;;
45728;SDS011;31439;53.512;10.206;2022-09-27T03:54:13;5.85;;;3.60;;
45728;SDS011;31439;53.512;10.206;2022-09-27T03:56:39;4.13;;;3.35;;
45728;SDS011;31439;53.512;10.206;2022-09-27T03:59:05;6.47;;;3.50;;
45728;SDS011;31439;53.512;10.206;2022-09-27T04:01:31;3.50;;;3.13;;
45728;SDS011;31439;53.512;10.206;2022-09-27T04:03:59;3.88;;;3.33;;
45728;SDS011;31439;53.512;10.206;2022-09-27T04:06:25;4.60;;;3.67;;
45728;SDS011;31439;53.512;10.206;2022-09-27T04:08:51;5.32;;;3.47;;
45728;SDS011;31439;53.512;10.206;2022-09-27T04:11:18;4.55;;;3.70;;
45728;SDS011;31439;53.512;10.206;2022-09-27T04:13:44;5.28;;;3.97;;
45728;SDS011;31439;53.512;10.206;2022-09-27T04:16:12;4.38;;;3.75;;
45728;SDS011;31439;53.512;10.206;2022-09-27T04:18:39;6.63;;;4.18;;
45728;SDS011;31439;53.512;10.206;2022-09-27T04:21:05;4.43;;;3.70;;
45728;SDS011;31439;53.512;10.206;2022-09-27T04:23:31;4.03;;;3.58;;
45728;SDS011;31439;53.512;10.206;2022-09-27T04:25:57;3.97;;;3.45;;
45728;SDS011;31439;53.512;10.206;2022-09-27T04:28:23;4.90;;;3.72;;
45728;SDS011;31439;53.512;10.206;2022-09-27T04:30:49;6.40;;;3.80;;
45728;SDS011;31439;53.512;10.206;2022-09-27T04:33:15;7.28;;;4.18;;
45728;SDS011;31439;53.512;10.206;2022-09-27T04:35:42;4.85;;;3.53;;
45728;SDS011;31439;53.512;10.206;2022-09-27T04:38:26;4.38;;;3.47;;
45728;SDS011;31439;53.512;10.206;2022-09-27T04:40:52;4.60;;;3.47;;
45728;SDS011;31439;53.512;10.206;2022-09-27T04:43:18;4.20;;;3.70;;
45728;SDS011;31439;53.512;10.206;2022-09-27T04:45:45;4.38;;;3.50;;
45728;SDS011;31439;53.512;10.206;2022-09-27T04:48:11;6.10;;;3.70;;
45728;SDS011;31439;53.512;10.206;2022-09-27T04:50:37;5.00;;;3.40;;
45728;SDS011;31439;53.512;10.206;2022-09-27T04:53:04;3.83;;;3.50;;
45728;SDS011;31439;53.512;10.206;2022-09-27T04:55:30;3.92;;;3.42;;
45728;SDS011;31439;53.512;10.206;2022-09-27T04:57:56;5.32;;;3.47;;
45728;SDS011;31439;53.512;10.206;2022-09-27T05:00:23;4.28;;;3.47;;
45728;SDS011;31439;53.512;10.206;2022-09-27T05:02:49;5.10;;;3.60;;
45728;SDS011;31439;53.512;10.206;2022-09-27T05:05:15;3.97;;;3.58;;
45728;SDS011;31439;53.512;10.206;2022-09-27T05:07:41;4.25;;;3.53;;
45728;SDS011;31439;53.512;10.206;2022-09-27T05:10:08;4.95;;;3.45;;
45728;SDS011;31439;53.512;10.206;2022-09-27T05:12:34;6.32;;;3.80;;
45728;SDS011;31439;53.512;10.206;2022-09-27T05:15:00;6.32;;;3.90;;
45728;SDS011;31439;53.512;10.206;2022-09-27T05:17:26;4.28;;;3.72;;
45728;SDS011;31439;53.512;10.206;2022-09-27T05:19:52;5.47;;;3.50;;
45728;SDS011;31439;53.512;10.206;2022-09-27T05:22:18;4.38;;;3.50;;
45728;SDS011;31439;53.512;10.206;2022-09-27T05:24:45;6.70;;;3.70;;
45728;SDS011;31439;53.512;10.206;2022-09-27T05:27:14;4.03;;;3.63;;
45728;SDS011;31439;53.512;10.206;2022-09-27T05:29:44;4.60;;;3.70;;
45728;SDS011;31439;53.512;10.206;2022-09-27T05:32:10;4.85;;;4.10;;
45728;SDS011;31439;53.512;10.206;2022-09-27T05:34:36;4.20;;;3.75;;
45728;SDS011;31439;53.512;10.206;2022-09-27T05:37:02;4.55;;;3.78;;
45728;SDS011;31439;53.512;10.206;2022-09-27T05:39:28;4.78;;;4.10;;
45728;SDS011;31439;53.512;10.206;2022-09-27T05:41:54;4.68;;;3.70;;
45728;SDS011;31439;53.512;10.206;2022-09-27T05:44:21;5.60;;;4.60;;
45728;SDS011;31439;53.512;10.206;2022-09-27T05:46:47;5.65;;;4.85;;
45728;SDS011;31439;53.512;10.206;2022-09-27T05:49:13;5.68;;;4.70;;
45728;SDS011;31439;53.512;10.206;2022-09-27T05:51:39;5.10;;;4.38;;
45728;SDS011;31439;53.512;10.206;2022-09-27T05:54:06;5.00;;;4.50;;
45728;SDS011;31439;53.512;10.206;2022-09-27T05:56:32;4.82;;;4.28;;
45728;SDS011;31439;53.512;10.206;2022-09-27T05:58:58;6.80;;;4.43;;
45728;SDS011;31439;53.512;10.206;2022-09-27T06:01:24;6.25;;;4.68;;
45728;SDS011;31439;53.512;10.206;2022-09-27T06:03:52;5.75;;;4.63;;
45728;SDS011;31439;53.512;10.206;2022-09-27T06:06:19;5.32;;;4.50;;
45728;SDS011;31439;53.512;10.206;2022-09-27T06:08:47;5.68;;;4.70;;
45728;SDS011;31439;53.512;10.206;2022-09-27T06:11:13;5.20;;;4.55;;
45728;SDS011;31439;53.512;10.206;2022-09-27T06:13:39;4.68;;;4.18;;
45728;SDS011;31439;53.512;10.206;2022-09-27T06:16:06;7.20;;;5.47;;
45728;SDS011;31439;53.512;10.206;2022-09-27T06:18:32;8.82;;;6.35;;
45728;SDS011;31439;53.512;10.206;2022-09-27T06:20:59;6.85;;;5.95;;
45728;SDS011;31439;53.512;10.206;2022-09-27T06:23:25;7.13;;;5.57;;
45728;SDS011;31439;53.512;10.206;2022-09-27T06:25:51;6.25;;;5.10;;
45728;SDS011;31439;53.512;10.206;2022-09-27T06:28:18;9.20;;;6.53;;
45728;SDS011;31439;53.512;10.206;2022-09-27T06:30:46;7.28;;;6.13;;
45728;SDS011;31439;53.512;10.206;2022-09-27T06:33:13;7.18;;;5.88;;
45728;SDS011;31439;53.512;10.206;2022-09-27T06:35:39;8.93;;;6.43;;
45728;SDS011;31439;53.512;10.206;2022-09-27T06:38:06;9.07;;;6.53;;
45728;SDS011;31439;53.512;10.206;2022-09-27T06:40:33;7.95;;;6.50;;
45728;SDS011;31439;53.512;10.206;2022-09-27T06:45:28;8.38;;;6.95;;
45728;SDS011;31439;53.512;10.206;2022-09-27T06:47:55;10.57;;;7.75;;
45728;SDS011;31439;53.512;10.206;2022-09-27T06:50:22;8.95;;;6.60;;
45728;SDS011;31439;53.512;10.206;2022-09-27T06:52:48;8.43;;;6.97;;
45728;SDS011;31439;53.512;10.206;2022-09-27T06:55:15;10.23;;;6.65;;
45728;SDS011;31439;53.512;10.206;2022-09-27T06:57:41;9.07;;;7.22;;
45728;SDS011;31439;53.512;10.206;2022-09-27T07:00:26;7.68;;;6.45;;
45728;SDS011;31439;53.512;10.206;2022-09-27T07:02:53;8.40;;;5.60;;
45728;SDS011;31439;53.512;10.206;2022-09-27T07:05:22;7.43;;;5.20;;
45728;SDS011;31439;53.512;10.206;2022-09-27T07:07:49;8.05;;;4.65;;
45728;SDS011;31439;53.512;10.206;2022-09-27T07:10:20;10.82;;;4.15;;
45728;SDS011;31439;53.512;10.206;2022-09-27T07:12:48;5.88;;;3.72;;
45728;SDS011;31439;53.512;10.206;2022-09-27T07:15:14;4.43;;;3.13;;
45728;SDS011;31439;53.512;10.206;2022-09-27T07:17:40;4.85;;;2.75;;
45728;SDS011;31439;53.512;10.206;2022-09-27T07:20:06;6.18;;;2.80;;
45728;SDS011;31439;53.512;10.206;2022-09-27T07:22:38;3.38;;;2.45;;
45728;SDS011;31439;53.512;10.206;2022-09-27T07:25:04;2.88;;;2.10;;
45728;SDS011;31439;53.512;10.206;2022-09-27T07:27:31;3.05;;;2.00;;
45728;SDS011;31439;53.512;10.206;2022-09-27T07:29:57;3.40;;;1.98;;
45728;SDS011;31439;53.512;10.206;2022-09-27T07:32:23;3.40;;;2.33;;
45728;SDS011;31439;53.512;10.206;2022-09-27T07:34:49;3.35;;;2.03;;
45728;SDS011;31439;53.512;10.206;2022-09-27T07:37:15;3.47;;;1.50;;
45728;SDS011;31439;53.512;10.206;2022-09-27T07:39:41;3.30;;;1.95;;
45728;SDS011;31439;53.512;10.206;2022-09-27T07:42:07;2.83;;;1.50;;
45728;SDS011;31439;53.512;10.206;2022-09-27T07:44:33;2.35;;;1.40;;
45728;SDS011;31439;53.512;10.206;2022-09-27T07:46:59;1.98;;;1.45;;
45728;SDS011;31439;53.512;10.206;2022-09-27T07:49:25;2.53;;;1.30;;
45728;SDS011;31439;53.512;10.206;2022-09-27T07:51:51;1.92;;;1.23;;
45728;SDS011;31439;53.512;10.206;2022-09-27T07:54:17;3.28;;;1.30;;
45728;SDS011;31439;53.512;10.206;2022-09-27T07:56:44;2.63;;;1.30;;
45728;SDS011;31439;53.512;10.206;2022-09-27T07:59:10;2.38;;;1.30;;
45728;SDS011;31439;53.512;10.206;2022-09-27T08:01:36;2.15;;;1.38;;
45728;SDS011;31439;53.512;10.206;2022-09-27T08:04:02;3.30;;;2.03;;
45728;SDS011;31439;53.512;10.206;2022-09-27T08:06:28;2.40;;;1.40;;
45728;SDS011;31439;53.512;10.206;2022-09-27T08:08:54;2.15;;;1.40;;
45728;SDS011;31439;53.512;10.206;2022-09-27T08:11:21;1.75;;;1.17;;
45728;SDS011;31439;53.512;10.206;2022-09-27T08:13:47;4.45;;;1.30;;
45728;SDS011;31439;53.512;10.206;2022-09-27T08:16:16;6.18;;;1.67;;
45728;SDS011;31439;53.512;10.206;2022-09-27T08:18:42;2.05;;;1.27;;
45728;SDS011;31439;53.512;10.206;2022-09-27T08:21:08;2.33;;;1.20;;
45728;SDS011;31439;53.512;10.206;2022-09-27T08:23:34;1.80;;;1.30;;
45728;SDS011;31439;53.512;10.206;2022-09-27T08:26:01;2.80;;;1.25;;
45728;SDS011;31439;53.512;10.206;2022-09-27T08:28:27;1.67;;;1.02;;
45728;SDS011;31439;53.512;10.206;2022-09-27T08:30:53;2.63;;;1.20;;
45728;SDS011;31439;53.512;10.206;2022-09-27T08:33:19;2.30;;;1.60;;
45728;SDS011;31439;53.512;10.206;2022-09-27T08:35:45;3.17;;;1.70;;
45728;SDS011;31439;53.512;10.206;2022-09-27T08:38:11;3.65;;;1.75;;
45728;SDS011;31439;53.512;10.206;2022-09-27T08:43:13;2.90;;;1.10;;
45728;SDS011;31439;53.512;10.206;2022-09-27T08:45:46;2.38;;;1.10;;
45728;SDS011;31439;53.512;10.206;2022-09-27T08:48:15;1.75;;;1.00;;
45728;SDS011;31439;53.512;10.206;2022-09-27T08:50:43;1.88;;;1.10;;
45728;SDS011;31439;53.512;10.206;2022-09-27T08:58:15;3.13;;;1.05;;
45728;SDS011;31439;53.512;10.206;2022-09-27T09:00:41;1.50;;;1.02;;
45728;SDS011;31439;53.512;10.206;2022-09-27T09:03:10;2.20;;;1.42;;
45728;SDS011;31439;53.512;10.206;2022-09-27T09:05:39;2.20;;;1.20;;
45728;SDS011;31439;53.512;10.206;2022-09-27T09:08:23;3.67;;;1.20;;
45728;SDS011;31439;53.512;10.206;2022-09-27T09:10:52;1.75;;;1.17;;
45728;SDS011;31439;53.512;10.206;2022-09-27T09:16:29;4.15;;;1.70;;
45728;SDS011;31439;53.512;10.206;2022-09-27T09:19:02;2.35;;;1.13;;
45728;SDS011;31439;53.512;10.206;2022-09-27T09:26:38;1.67;;;1.10;;
45728;SDS011;31439;53.512;10.206;2022-09-27T09:31:47;5.88;;;1.20;;
45728;SDS011;31439;53.512;10.206;2022-09-27T09:34:18;1.83;;;1.02;;
45728;SDS011;31439;53.512;10.206;2022-09-27T09:36:53;2.10;;;1.00;;
45728;SDS011;31439;53.512;10.206;2022-09-27T09:41:56;4.80;;;1.02;;
45728;SDS011;31439;53.512;10.206;2022-09-27T09:44:28;1.00;;;0.90;;
45728;SDS011;31439;53.512;10.206;2022-09-27T09:46:56;5.65;;;2.80;;
45728;SDS011;31439;53.512;10.206;2022-09-27T09:51:59;2.72;;;1.00;;
45728;SDS011;31439;53.512;10.206;2022-09-27T09:54:31;2.03;;;1.10;;
45728;SDS011;31439;53.512;10.206;2022-09-27T09:57:02;2.78;;;1.00;;
45728;SDS011;31439;53.512;10.206;2022-09-27T09:59:31;1.85;;;1.00;;
45728;SDS011;31439;53.512;10.206;2022-09-27T10:02:06;2.72;;;1.10;;
45728;SDS011;31439;53.512;10.206;2022-09-27T10:04:38;1.85;;;1.10;;
45728;SDS011;31439;53.512;10.206;2022-09-27T10:07:03;3.20;;;1.00;;
45728;SDS011;31439;53.512;10.206;2022-09-27T10:09:29;1.40;;;0.98;;
45728;SDS011;31439;53.512;10.206;2022-09-27T10:11:57;1.42;;;0.80;;
45728;SDS011;31439;53.512;10.206;2022-09-27T10:14:24;2.10;;;1.05;;
45728;SDS011;31439;53.512;10.206;2022-09-27T10:16:56;2.65;;;1.00;;
45728;SDS011;31439;53.512;10.206;2022-09-27T10:19:32;2.05;;;0.95;;
45728;SDS011;31439;53.512;10.206;2022-09-27T10:24:54;2.42;;;1.02;;
45728;SDS011;31439;53.512;10.206;2022-09-27T10:27:21;1.83;;;0.98;;
45728;SDS011;31439;53.512;10.206;2022-09-27T10:29:47;1.95;;;0.88;;
45728;SDS011;31439;53.512;10.206;2022-09-27T10:32:27;2.03;;;1.00;;
45728;SDS011;31439;53.512;10.206;2022-09-27T10:35:17;2.15;;;1.00;;
45728;SDS011;31439;53.512;10.206;2022-09-27T10:37:42;2.63;;;0.90;;
45728;SDS011;31439;53.512;10.206;2022-09-27T10:40:20;1.85;;;1.05;;
45728;SDS011;31439;53.512;10.206;2022-09-27T10:42:49;2.58;;;1.20;;
45728;SDS011;31439;53.512;10.206;2022-09-27T10:45:29;3.17;;;0.80;;
45728;SDS011;31439;53.512;10.206;2022-09-27T10:47:55;1.88;;;1.00;;
45728;SDS011;31439;53.512;10.206;2022-09-27T10:50:29;1.92;;;1.17;;
45728;SDS011;31439;53.512;10.206;2022-09-27T10:53:15;4.55;;;1.40;;
45728;SDS011;31439;53.512;10.206;2022-09-27T10:55:46;3.05;;;1.20;;
45728;SDS011;31439;53.512;10.206;2022-09-27T10:58:45;8.43;;;4.35;;
45728;SDS011;31439;53.512;10.206;2022-09-27T11:01:05;2.55;;;1.17;;
45728;SDS011;31439;53.512;10.206;2022-09-27T11:03:36;2.63;;;1.00;;
45728;SDS011;31439;53.512;10.206;2022-09-27T11:08:47;2.42;;;1.10;;
45728;SDS011;31439;53.512;10.206;2022-09-27T11:11:18;2.20;;;0.88;;
45728;SDS011;31439;53.512;10.206;2022-09-27T11:14:04;3.15;;;0.98;;
45728;SDS011;31439;53.512;10.206;2022-09-27T11:19:06;1.52;;;0.90;;
45728;SDS011;31439;53.512;10.206;2022-09-27T11:29:19;3.55;;;0.95;;
45728;SDS011;31439;53.512;10.206;2022-09-27T11:55:29;1.73;;;0.80;;
45728;SDS011;31439;53.512;10.206;2022-09-27T12:00:30;2.40;;;0.68;;
45728;SDS011;31439;53.512;10.206;2022-09-27T12:10:43;1.10;;;0.70;;
45728;SDS011;31439;53.512;10.206;2022-09-27T12:13:12;3.15;;;1.80;;
45728;SDS011;31439;53.512;10.206;2022-09-27T12:15:40;1.48;;;0.90;;
45728;SDS011;31439;53.512;10.206;2022-09-27T12:18:24;2.40;;;1.02;;
45728;SDS011;31439;53.512;10.206;2022-09-27T12:20:52;0.98;;;0.80;;
45728;SDS011;31439;53.512;10.206;2022-09-27T12:25:44;1.63;;;0.73;;
45728;SDS011;31439;53.512;10.206;2022-09-27T12:28:49;0.77;;;0.70;;
45728;SDS011;31439;53.512;10.206;2022-09-27T12:31:27;2.53;;;0.90;;
45728;SDS011;31439;53.512;10.206;2022-09-27T12:33:59;1.25;;;0.80;;
45728;SDS011;31439;53.512;10.206;2022-09-27T12:36:30;1.10;;;0.60;;
45728;SDS011;31439;53.512;10.206;2022-09-27T12:39:00;1.00;;;0.80;;
45728;SDS011;31439;53.512;10.206;2022-09-27T12:41:30;0.82;;;0.80;;
45728;SDS011;31439;53.512;10.206;2022-09-27T12:43:57;1.40;;;0.90;;
45728;SDS011;31439;53.512;10.206;2022-09-27T12:49:01;10.32;;;6.25;;
45728;SDS011;31439;53.512;10.206;2022-09-27T12:51:32;2.47;;;1.23;;
45728;SDS011;31439;53.512;10.206;2022-09-27T12:59:32;1.45;;;0.77;;
45728;SDS011;31439;53.512;10.206;2022-09-27T13:02:18;2.08;;;0.80;;
45728;SDS011;31439;53.512;10.206;2022-09-27T13:09:59;2.85;;;0.80;;
45728;SDS011;31439;53.512;10.206;2022-09-27T13:12:31;1.85;;;0.60;;
45728;SDS011;31439;53.512;10.206;2022-09-27T13:15:18;3.13;;;0.80;;
45728;SDS011;31439;53.512;10.206;2022-09-27T13:17:47;1.17;;;0.77;;
45728;SDS011;31439;53.512;10.206;2022-09-27T13:22:59;0.82;;;0.50;;
45728;SDS011;31439;53.512;10.206;2022-09-27T13:31:15;0.50;;;0.50;;
45728;SDS011;31439;53.512;10.206;2022-09-27T13:36:29;0.98;;;0.60;;
45728;SDS011;31439;53.512;10.206;2022-09-27T13:41:21;3.55;;;0.70;;
45728;SDS011;31439;53.512;10.206;2022-09-27T13:44:08;2.85;;;0.80;;
45728;SDS011;31439;53.512;10.206;2022-09-27T13:46:43;0.70;;;0.43;;
45728;SDS011;31439;53.512;10.206;2022-09-27T13:49:13;2.15;;;0.50;;
45728;SDS011;31439;53.512;10.206;2022-09-27T13:51:43;0.75;;;0.55;;
45728;SDS011;31439;53.512;10.206;2022-09-27T13:57:00;1.58;;;0.57;;
45728;SDS011;31439;53.512;10.206;2022-09-27T13:59:34;2.08;;;0.60;;
45728;SDS011;31439;53.512;10.206;2022-09-27T14:04:40;1.10;;;0.60;;
45728;SDS011;31439;53.512;10.206;2022-09-27T14:07:08;1.13;;;0.55;;
45728;SDS011;31439;53.512;10.206;2022-09-27T14:09:37;0.88;;;0.50;;
45728;SDS011;31439;53.512;10.206;2022-09-27T14:12:07;1.92;;;0.55;;
45728;SDS011;31439;53.512;10.206;2022-09-27T14:14:35;2.13;;;0.85;;
45728;SDS011;31439;53.512;10.206;2022-09-27T14:17:10;1.95;;;0.90;;
45728;SDS011;31439;53.512;10.206;2022-09-27T14:19:40;5.82;;;2.45;;
45728;SDS011;31439;53.512;10.206;2022-09-27T14:22:16;2.92;;;1.40;;
45728;SDS011;31439;53.512;10.206;2022-09-27T14:29:43;1.00;;;0.60;;
45728;SDS011;31439;53.512;10.206;2022-09-27T14:32:11;1.30;;;0.68;;
45728;SDS011;31439;53.512;10.206;2022-09-27T14:34:41;4.30;;;0.95;;
45728;SDS011;31439;53.512;10.206;2022-09-27T14:37:17;4.40;;;1.00;;
45728;SDS011;31439;53.512;10.206;2022-09-27T14:39:55;1.65;;;0.70;;
45728;SDS011;31439;53.512;10.206;2022-09-27T14:42:23;2.50;;;1.00;;
45728;SDS011;31439;53.512;10.206;2022-09-27T14:44:52;3.38;;;1.10;;
45728;SDS011;31439;53.512;10.206;2022-09-27T14:47:24;1.95;;;1.20;;
45728;SDS011;31439;53.512;10.206;2022-09-27T14:49:51;3.58;;;1.60;;
45728;SDS011;31439;53.512;10.206;2022-09-27T14:52:21;2.53;;;1.27;;
45728;SDS011;31439;53.512;10.206;2022-09-27T14:54:57;2.75;;;1.15;;
45728;SDS011;31439;53.512;10.206;2022-09-27T14:57:27;2.63;;;1.42;;
45728;SDS011;31439;53.512;10.206;2022-09-27T14:59:56;2.42;;;1.40;;
45728;SDS011;31439;53.512;10.206;2022-09-27T15:02:25;3.97;;;1.52;;
45728;SDS011;31439;53.512;10.206;2022-09-27T15:04:52;2.55;;;1.50;;
45728;SDS011;31439;53.512;10.206;2022-09-27T15:07:19;2.80;;;1.60;;
45728;SDS011;31439;53.512;10.206;2022-09-27T15:09:49;2.53;;;1.88;;
45728;SDS011;31439;53.512;10.206;2022-09-27T15:12:21;4.35;;;1.95;;
45728;SDS011;31439;53.512;10.206;2022-09-27T15:14:49;4.00;;;2.22;;
45728;SDS011;31439;53.512;10.206;2022-09-27T15:17:19;4.72;;;2.28;;
45728;SDS011;31439;53.512;10.206;2022-09-27T15:20:03;2.30;;;1.75;;
45728;SDS011;31439;53.512;10.206;2022-09-27T15:22:43;3.50;;;1.95;;
45728;SDS011;31439;53.512;10.206;2022-09-27T15:25:17;5.32;;;2.00;;
45728;SDS011;31439;53.512;10.206;2022-09-27T15:27:48;2.80;;;2.00;;
45728;SDS011;31439;53.512;10.206;2022-09-27T15:30:19;3.08;;;1.90;;
45728;SDS011;31439;53.512;10.206;2022-09-27T15:32:49;4.65;;;2.10;;
45728;SDS011;31439;53.512;10.206;2022-09-27T15:35:21;3.30;;;1.80;;
45728;SDS011;31439;53.512;10.206;2022-09-27T15:37:47;3.33;;;1.90;;
45728;SDS011;31439;53.512;10.206;2022-09-27T15:42:56;2.83;;;1.80;;
45728;SDS011;31439;53.512;10.206;2022-09-27T15:45:30;4.20;;;1.80;;
45728;SDS011;31439;53.512;10.206;2022-09-27T15:48:13;6.72;;;1.75;;
45728;SDS011;31439;53.512;10.206;2022-09-27T15:50:39;3.65;;;1.75;;
45728;SDS011;31439;53.512;10.206;2022-09-27T15:53:06;4.25;;;1.67;;
45728;SDS011;31439;53.512;10.206;2022-09-27T15:55:34;3.90;;;1.60;;
45728;SDS011;31439;53.512;10.206;2022-09-27T15:58:04;2.55;;;1.50;;
45728;SDS011;31439;53.512;10.206;2022-09-27T16:00:32;3.88;;;1.73;;
45728;SDS011;31439;53.512;10.206;2022-09-27T16:02:59;3.83;;;1.85;;
45728;SDS011;31439;53.512;10.206;2022-09-27T16:05:25;2.95;;;1.50;;
45728;SDS011;31439;53.512;10.206;2022-09-27T16:07:53;2.15;;;1.42;;
45728;SDS011;31439;53.512;10.206;2022-09-27T16:10:21;2.45;;;1.58;;
45728;SDS011;31439;53.512;10.206;2022-09-27T16:12:47;3.38;;;1.70;;
45728;SDS011;31439;53.512;10.206;2022-09-27T16:15:15;2.35;;;1.33;;
45728;SDS011;31439;53.512;10.206;2022-09-27T16:17:41;2.88;;;1.42;;
45728;SDS011;31439;53.512;10.206;2022-09-27T16:20:18;1.55;;;1.30;;
45728;SDS011;31439;53.512;10.206;2022-09-27T16:22:47;5.93;;;1.35;;
45728;SDS011;31439;53.512;10.206;2022-09-27T16:25:15;4.53;;;1.42;;
45728;SDS011;31439;53.512;10.206;2022-09-27T16:27:41;5.38;;;2.00;;
45728;SDS011;31439;53.512;10.206;2022-09-27T16:30:07;4.15;;;1.33;;
45728;SDS011;31439;53.512;10.206;2022-09-27T16:32:38;4.22;;;1.50;;
45728;SDS011;31439;53.512;10.206;2022-09-27T16:35:04;8.45;;;2.67;;
45728;SDS011;31439;53.512;10.206;2022-09-27T16:37:30;1.80;;;1.10;;
45728;SDS011;31439;53.512;10.206;2022-09-27T16:39:56;2.47;;;1.20;;
45728;SDS011;31439;53.512;10.206;2022-09-27T16:42:23;5.07;;;1.70;;
45728;SDS011;31439;53.512;10.206;2022-09-27T16:44:51;4.47;;;1.10;;
45728;SDS011;31439;53.512;10.206;2022-09-27T16:47:17;2.92;;;1.10;;
45728;SDS011;31439;53.512;10.206;2022-09-27T16:49:43;3.75;;;1.50;;
45728;SDS011;31439;53.512;10.206;2022-09-27T16:52:28;7.03;;;1.30;;
45728;SDS011;31439;53.512;10.206;2022-09-27T16:54:58;2.92;;;1.42;;
45728;SDS011;31439;53.512;10.206;2022-09-27T16:57:24;4.85;;;1.88;;
45728;SDS011;31439;53.512;10.206;2022-09-27T16:59:52;3.35;;;1.10;;
45728;SDS011;31439;53.512;10.206;2022-09-27T17:02:21;2.25;;;0.90;;
45728;SDS011;31439;53.512;10.206;2022-09-27T17:04:47;2.55;;;0.90;;
45728;SDS011;31439;53.512;10.206;2022-09-27T17:07:13;3.45;;;1.10;;
45728;SDS011;31439;53.512;10.206;2022-09-27T17:09:39;1.10;;;0.75;;
45728;SDS011;31439;53.512;10.206;2022-09-27T17:12:06;3.78;;;0.95;;
45728;SDS011;31439;53.512;10.206;2022-09-27T17:14:32;3.60;;;1.10;;
45728;SDS011;31439;53.512;10.206;2022-09-27T17:16:58;3.00;;;1.02;;
45728;SDS011;31439;53.512;10.206;2022-09-27T17:19:24;2.22;;;1.00;;
45728;SDS011;31439;53.512;10.206;2022-09-27T17:21:49;2.00;;;0.90;;
45728;SDS011;31439;53.512;10.206;2022-09-27T17:24:16;2.92;;;1.33;;